Labuan Airport Labuan MY
ICAO: WBKL
IATA:
Category: Medium
Scheduled Services:

Elevation: 101 ft
TransAlt. 11000 ft.

Airport Communications:
APP:119.7
ATIS:126.85
GND:118.35
TWR:118.1

WBKL Zoom In..

If you have problems with the map follow the link
https://www.worldairports.se/pages/airport.php?
ICAO=WBKL

Runways:

(A) RW 14 length 9006 ft width 148 ft
ILS 111.10 / hdg 145

(B) RW 32 length 9006 ft width 148 ft
---- / hdg 325

Location; WBKL
Day. 14 / Time. 08.00 Zulu
* QNH: 1007
* Temperature: 31° c. 87.8°f.
* Wind from: VRB° Speed 03 kn.
Dewpoint: 23° c.
Visibility: 10 km or more.
Clouds: Few 1500 ft.
Clouds: Broken 3000 ft.

WBKL 140800Z VRB03KT 9999 FEW015 BKN300 31/23 Q1007


Wind From VRB°
Speed 03 kn.

 
 
jpsmedia worldairports.se 2019   terms of use